sensor_id;sensor_type;location;lat;lon;timestamp;P1;durP1;ratioP1;P2;durP2;ratioP2
6223;SDS011;3145;42.726;23.342;2022-09-09T00:00:57;12.57;;;11.47;;
6223;SDS011;3145;42.726;23.342;2022-09-09T00:03:31;13.20;;;11.90;;
6223;SDS011;3145;42.726;23.342;2022-09-09T00:06:07;14.23;;;11.10;;
6223;SDS011;3145;42.726;23.342;2022-09-09T00:08:44;13.43;;;12.07;;
6223;SDS011;3145;42.726;23.342;2022-09-09T00:11:20;13.77;;;11.90;;
6223;SDS011;3145;42.726;23.342;2022-09-09T00:13:54;12.80;;;11.70;;
6223;SDS011;3145;42.726;23.342;2022-09-09T00:16:25;12.93;;;11.77;;
6223;SDS011;3145;42.726;23.342;2022-09-09T00:18:59;13.57;;;12.30;;
6223;SDS011;3145;42.726;23.342;2022-09-09T00:21:32;13.73;;;12.27;;
6223;SDS011;3145;42.726;23.342;2022-09-09T00:24:04;12.97;;;11.87;;
6223;SDS011;3145;42.726;23.342;2022-09-09T00:26:40;14.10;;;12.70;;
6223;SDS011;3145;42.726;23.342;2022-09-09T00:29:14;13.80;;;12.53;;
6223;SDS011;3145;42.726;23.342;2022-09-09T00:31:49;16.10;;;13.67;;
6223;SDS011;3145;42.726;23.342;2022-09-09T00:34:21;14.10;;;12.70;;
6223;SDS011;3145;42.726;23.342;2022-09-09T00:36:52;16.17;;;12.83;;
6223;SDS011;3145;42.726;23.342;2022-09-09T00:39:23;14.03;;;12.63;;
6223;SDS011;3145;42.726;23.342;2022-09-09T00:41:57;14.47;;;13.07;;
6223;SDS011;3145;42.726;23.342;2022-09-09T00:44:40;15.17;;;12.77;;
6223;SDS011;3145;42.726;23.342;2022-09-09T00:47:20;22.53;;;13.60;;
6223;SDS011;3145;42.726;23.342;2022-09-09T00:50:03;15.03;;;13.53;;
6223;SDS011;3145;42.726;23.342;2022-09-09T00:52:39;15.53;;;13.90;;
6223;SDS011;3145;42.726;23.342;2022-09-09T00:55:15;15.70;;;13.33;;
6223;SDS011;3145;42.726;23.342;2022-09-09T00:57:45;15.33;;;13.77;;
6223;SDS011;3145;42.726;23.342;2022-09-09T01:00:19;15.40;;;14.03;;
6223;SDS011;3145;42.726;23.342;2022-09-09T01:05:41;16.67;;;14.90;;
6223;SDS011;3145;42.726;23.342;2022-09-09T01:08:14;15.10;;;13.57;;
6223;SDS011;3145;42.726;23.342;2022-09-09T01:10:55;15.07;;;13.63;;
6223;SDS011;3145;42.726;23.342;2022-09-09T01:13:25;15.30;;;13.80;;
6223;SDS011;3145;42.726;23.342;2022-09-09T01:15:56;15.87;;;14.27;;
6223;SDS011;3145;42.726;23.342;2022-09-09T01:18:26;15.00;;;13.60;;
6223;SDS011;3145;42.726;23.342;2022-09-09T01:20:55;15.80;;;14.40;;
6223;SDS011;3145;42.726;23.342;2022-09-09T01:23:39;18.23;;;13.33;;
6223;SDS011;3145;42.726;23.342;2022-09-09T01:26:17;16.07;;;14.07;;
6223;SDS011;3145;42.726;23.342;2022-09-09T01:28:48;16.80;;;15.10;;
6223;SDS011;3145;42.726;23.342;2022-09-09T01:31:18;15.60;;;14.07;;
6223;SDS011;3145;42.726;23.342;2022-09-09T01:33:47;16.17;;;14.40;;
6223;SDS011;3145;42.726;23.342;2022-09-09T01:36:16;15.30;;;13.93;;
6223;SDS011;3145;42.726;23.342;2022-09-09T01:38:48;15.97;;;14.47;;
6223;SDS011;3145;42.726;23.342;2022-09-09T01:41:14;15.53;;;14.00;;
6223;SDS011;3145;42.726;23.342;2022-09-09T01:43:43;17.77;;;14.60;;
6223;SDS011;3145;42.726;23.342;2022-09-09T01:46:10;18.53;;;15.03;;
6223;SDS011;3145;42.726;23.342;2022-09-09T01:48:38;16.60;;;15.10;;
6223;SDS011;3145;42.726;23.342;2022-09-09T01:51:07;16.63;;;15.03;;
6223;SDS011;3145;42.726;23.342;2022-09-09T01:53:35;17.33;;;14.57;;
6223;SDS011;3145;42.726;23.342;2022-09-09T01:56:06;15.00;;;13.60;;
6223;SDS011;3145;42.726;23.342;2022-09-09T01:58:44;19.40;;;14.43;;
6223;SDS011;3145;42.726;23.342;2022-09-09T02:01:22;15.77;;;14.27;;
6223;SDS011;3145;42.726;23.342;2022-09-09T02:03:56;15.30;;;13.83;;
6223;SDS011;3145;42.726;23.342;2022-09-09T02:06:26;14.93;;;13.53;;
6223;SDS011;3145;42.726;23.342;2022-09-09T02:08:56;14.17;;;13.00;;
6223;SDS011;3145;42.726;23.342;2022-09-09T02:11:26;15.03;;;13.43;;
6223;SDS011;3145;42.726;23.342;2022-09-09T02:13:57;16.67;;;15.07;;
6223;SDS011;3145;42.726;23.342;2022-09-09T02:16:28;15.10;;;13.80;;
6223;SDS011;3145;42.726;23.342;2022-09-09T02:19:01;15.20;;;13.57;;
6223;SDS011;3145;42.726;23.342;2022-09-09T02:21:32;20.03;;;14.80;;
6223;SDS011;3145;42.726;23.342;2022-09-09T02:24:02;14.97;;;13.40;;
6223;SDS011;3145;42.726;23.342;2022-09-09T02:26:33;15.50;;;13.90;;
6223;SDS011;3145;42.726;23.342;2022-09-09T02:29:05;15.67;;;14.17;;
6223;SDS011;3145;42.726;23.342;2022-09-09T02:31:35;15.23;;;13.70;;
6223;SDS011;3145;42.726;23.342;2022-09-09T02:34:04;16.67;;;14.30;;
6223;SDS011;3145;42.726;23.342;2022-09-09T02:36:34;17.27;;;13.57;;
6223;SDS011;3145;42.726;23.342;2022-09-09T02:39:03;15.37;;;13.83;;
6223;SDS011;3145;42.726;23.342;2022-09-09T02:41:34;16.60;;;14.17;;
6223;SDS011;3145;42.726;23.342;2022-09-09T02:44:08;15.37;;;13.87;;
6223;SDS011;3145;42.726;23.342;2022-09-09T02:46:40;15.47;;;13.87;;
6223;SDS011;3145;42.726;23.342;2022-09-09T02:49:24;17.13;;;15.40;;
6223;SDS011;3145;42.726;23.342;2022-09-09T02:52:00;16.53;;;14.77;;
6223;SDS011;3145;42.726;23.342;2022-09-09T02:54:28;15.77;;;14.30;;
6223;SDS011;3145;42.726;23.342;2022-09-09T02:57:00;16.37;;;14.87;;
6223;SDS011;3145;42.726;23.342;2022-09-09T02:59:32;16.70;;;15.03;;
6223;SDS011;3145;42.726;23.342;2022-09-09T03:01:59;16.33;;;14.83;;
6223;SDS011;3145;42.726;23.342;2022-09-09T03:04:26;16.67;;;15.13;;
6223;SDS011;3145;42.726;23.342;2022-09-09T03:06:53;15.70;;;14.10;;
6223;SDS011;3145;42.726;23.342;2022-09-09T03:09:19;15.90;;;14.40;;
6223;SDS011;3145;42.726;23.342;2022-09-09T03:11:46;17.57;;;14.43;;
6223;SDS011;3145;42.726;23.342;2022-09-09T03:14:14;17.60;;;15.73;;
6223;SDS011;3145;42.726;23.342;2022-09-09T03:16:42;16.67;;;15.03;;
6223;SDS011;3145;42.726;23.342;2022-09-09T03:19:09;15.73;;;14.13;;
6223;SDS011;3145;42.726;23.342;2022-09-09T03:21:36;17.30;;;15.50;;
6223;SDS011;3145;42.726;23.342;2022-09-09T03:24:03;16.23;;;14.63;;
6223;SDS011;3145;42.726;23.342;2022-09-09T03:26:31;18.27;;;16.43;;
6223;SDS011;3145;42.726;23.342;2022-09-09T03:28:58;18.10;;;16.30;;
6223;SDS011;3145;42.726;23.342;2022-09-09T03:31:26;17.57;;;15.57;;
6223;SDS011;3145;42.726;23.342;2022-09-09T03:33:56;16.83;;;14.67;;
6223;SDS011;3145;42.726;23.342;2022-09-09T03:36:24;16.27;;;14.67;;
6223;SDS011;3145;42.726;23.342;2022-09-09T03:38:51;18.73;;;16.80;;
6223;SDS011;3145;42.726;23.342;2022-09-09T03:41:19;17.93;;;16.03;;
6223;SDS011;3145;42.726;23.342;2022-09-09T03:43:46;20.90;;;16.77;;
6223;SDS011;3145;42.726;23.342;2022-09-09T03:46:12;21.07;;;16.97;;
6223;SDS011;3145;42.726;23.342;2022-09-09T03:48:39;21.93;;;16.53;;
6223;SDS011;3145;42.726;23.342;2022-09-09T03:51:07;19.60;;;15.73;;
6223;SDS011;3145;42.726;23.342;2022-09-09T03:53:34;19.73;;;16.77;;
6223;SDS011;3145;42.726;23.342;2022-09-09T03:56:03;22.87;;;17.03;;
6223;SDS011;3145;42.726;23.342;2022-09-09T03:58:32;18.40;;;15.97;;
6223;SDS011;3145;42.726;23.342;2022-09-09T04:01:00;23.87;;;17.50;;
6223;SDS011;3145;42.726;23.342;2022-09-09T04:03:28;21.97;;;16.50;;
6223;SDS011;3145;42.726;23.342;2022-09-09T04:05:56;17.90;;;16.10;;
6223;SDS011;3145;42.726;23.342;2022-09-09T04:08:25;19.37;;;16.80;;
6223;SDS011;3145;42.726;23.342;2022-09-09T04:10:53;18.80;;;16.97;;
6223;SDS011;3145;42.726;23.342;2022-09-09T04:13:23;21.40;;;16.20;;
6223;SDS011;3145;42.726;23.342;2022-09-09T04:15:51;20.37;;;16.60;;
6223;SDS011;3145;42.726;23.342;2022-09-09T04:18:19;28.17;;;17.23;;
6223;SDS011;3145;42.726;23.342;2022-09-09T04:20:46;30.40;;;18.20;;
6223;SDS011;3145;42.726;23.342;2022-09-09T04:23:13;36.13;;;18.67;;
6223;SDS011;3145;42.726;23.342;2022-09-09T04:25:44;23.20;;;18.43;;
6223;SDS011;3145;42.726;23.342;2022-09-09T04:28:11;34.07;;;21.57;;
6223;SDS011;3145;42.726;23.342;2022-09-09T04:30:38;25.53;;;20.60;;
6223;SDS011;3145;42.726;23.342;2022-09-09T04:33:05;29.83;;;20.40;;
6223;SDS011;3145;42.726;23.342;2022-09-09T04:35:32;28.40;;;20.80;;
6223;SDS011;3145;42.726;23.342;2022-09-09T04:38:00;29.23;;;20.00;;
6223;SDS011;3145;42.726;23.342;2022-09-09T04:40:28;34.20;;;19.63;;
6223;SDS011;3145;42.726;23.342;2022-09-09T04:42:57;23.60;;;18.87;;
6223;SDS011;3145;42.726;23.342;2022-09-09T04:45:24;26.80;;;18.57;;
6223;SDS011;3145;42.726;23.342;2022-09-09T04:47:51;31.60;;;19.13;;
6223;SDS011;3145;42.726;23.342;2022-09-09T04:50:17;23.10;;;17.53;;
6223;SDS011;3145;42.726;23.342;2022-09-09T04:52:44;32.47;;;18.10;;
6223;SDS011;3145;42.726;23.342;2022-09-09T04:55:11;23.07;;;17.80;;
6223;SDS011;3145;42.726;23.342;2022-09-09T04:57:38;30.23;;;19.17;;
6223;SDS011;3145;42.726;23.342;2022-09-09T05:00:07;23.37;;;16.60;;
6223;SDS011;3145;42.726;23.342;2022-09-09T05:02:36;26.83;;;16.83;;
6223;SDS011;3145;42.726;23.342;2022-09-09T05:05:04;33.10;;;16.30;;
6223;SDS011;3145;42.726;23.342;2022-09-09T05:07:31;29.70;;;16.70;;
6223;SDS011;3145;42.726;23.342;2022-09-09T05:09:58;23.83;;;15.90;;
6223;SDS011;3145;42.726;23.342;2022-09-09T05:12:25;25.00;;;15.87;;
6223;SDS011;3145;42.726;23.342;2022-09-09T05:14:52;26.33;;;16.10;;
6223;SDS011;3145;42.726;23.342;2022-09-09T05:17:20;28.60;;;14.80;;
6223;SDS011;3145;42.726;23.342;2022-09-09T05:19:47;25.20;;;15.77;;
6223;SDS011;3145;42.726;23.342;2022-09-09T05:22:17;16.50;;;13.87;;
6223;SDS011;3145;42.726;23.342;2022-09-09T05:24:45;18.17;;;13.23;;
6223;SDS011;3145;42.726;23.342;2022-09-09T05:27:12;13.40;;;12.03;;
6223;SDS011;3145;42.726;23.342;2022-09-09T05:29:39;15.07;;;12.00;;
6223;SDS011;3145;42.726;23.342;2022-09-09T05:32:06;16.13;;;11.20;;
6223;SDS011;3145;42.726;23.342;2022-09-09T05:34:34;14.97;;;12.17;;
6223;SDS011;3145;42.726;23.342;2022-09-09T05:37:02;15.83;;;12.47;;
6223;SDS011;3145;42.726;23.342;2022-09-09T05:39:30;12.63;;;10.87;;
6223;SDS011;3145;42.726;23.342;2022-09-09T05:41:58;17.93;;;12.23;;
6223;SDS011;3145;42.726;23.342;2022-09-09T05:44:24;14.05;;;11.43;;
6223;SDS011;3145;42.726;23.342;2022-09-09T05:46:52;12.52;;;10.07;;
6223;SDS011;3145;42.726;23.342;2022-09-09T05:49:20;12.68;;;11.30;;
6223;SDS011;3145;42.726;23.342;2022-09-09T05:51:48;11.90;;;10.70;;
6223;SDS011;3145;42.726;23.342;2022-09-09T05:54:15;12.32;;;11.00;;
6223;SDS011;3145;42.726;23.342;2022-09-09T05:56:42;12.27;;;10.65;;
6223;SDS011;3145;42.726;23.342;2022-09-09T05:59:09;12.48;;;11.38;;
6223;SDS011;3145;42.726;23.342;2022-09-09T06:01:36;15.13;;;12.48;;
6223;SDS011;3145;42.726;23.342;2022-09-09T06:04:05;13.30;;;11.90;;
6223;SDS011;3145;42.726;23.342;2022-09-09T06:06:33;14.50;;;9.88;;
6223;SDS011;3145;42.726;23.342;2022-09-09T06:09:03;11.65;;;10.43;;
6223;SDS011;3145;42.726;23.342;2022-09-09T06:11:34;11.35;;;10.30;;
6223;SDS011;3145;42.726;23.342;2022-09-09T06:14:02;9.77;;;9.05;;
6223;SDS011;3145;42.726;23.342;2022-09-09T06:16:30;9.55;;;8.73;;
6223;SDS011;3145;42.726;23.342;2022-09-09T06:18:58;9.63;;;8.70;;
6223;SDS011;3145;42.726;23.342;2022-09-09T06:21:26;11.40;;;8.80;;
6223;SDS011;3145;42.726;23.342;2022-09-09T06:23:55;14.60;;;8.70;;
6223;SDS011;3145;42.726;23.342;2022-09-09T06:26:24;8.18;;;7.38;;
6223;SDS011;3145;42.726;23.342;2022-09-09T06:28:52;9.52;;;8.82;;
6223;SDS011;3145;42.726;23.342;2022-09-09T06:31:20;11.20;;;9.30;;
6223;SDS011;3145;42.726;23.342;2022-09-09T06:33:49;10.43;;;9.27;;
6223;SDS011;3145;42.726;23.342;2022-09-09T06:36:18;15.38;;;9.27;;
6223;SDS011;3145;42.726;23.342;2022-09-09T06:38:46;13.05;;;7.70;;
6223;SDS011;3145;42.726;23.342;2022-09-09T06:41:14;11.55;;;8.65;;
6223;SDS011;3145;42.726;23.342;2022-09-09T06:43:44;9.10;;;8.35;;
6223;SDS011;3145;42.726;23.342;2022-09-09T06:46:12;9.48;;;8.60;;
6223;SDS011;3145;42.726;23.342;2022-09-09T06:48:40;9.07;;;8.38;;
6223;SDS011;3145;42.726;23.342;2022-09-09T06:51:08;9.07;;;7.97;;
6223;SDS011;3145;42.726;23.342;2022-09-09T06:53:38;9.43;;;7.72;;
6223;SDS011;3145;42.726;23.342;2022-09-09T06:56:17;8.73;;;7.85;;
6223;SDS011;3145;42.726;23.342;2022-09-09T06:58:48;9.35;;;8.50;;
6223;SDS011;3145;42.726;23.342;2022-09-09T07:01:16;9.85;;;8.88;;
6223;SDS011;3145;42.726;23.342;2022-09-09T07:03:46;7.95;;;7.25;;
6223;SDS011;3145;42.726;23.342;2022-09-09T07:06:16;8.40;;;7.78;;
6223;SDS011;3145;42.726;23.342;2022-09-09T07:08:48;9.55;;;8.05;;
6223;SDS011;3145;42.726;23.342;2022-09-09T07:11:16;9.48;;;8.48;;
6223;SDS011;3145;42.726;23.342;2022-09-09T07:13:43;10.07;;;8.15;;
6223;SDS011;3145;42.726;23.342;2022-09-09T07:16:12;10.25;;;7.38;;
6223;SDS011;3145;42.726;23.342;2022-09-09T07:18:40;7.85;;;7.05;;
6223;SDS011;3145;42.726;23.342;2022-09-09T07:21:08;9.63;;;7.57;;
6223;SDS011;3145;42.726;23.342;2022-09-09T07:23:37;7.35;;;6.70;;
6223;SDS011;3145;42.726;23.342;2022-09-09T07:26:06;8.82;;;6.82;;
6223;SDS011;3145;42.726;23.342;2022-09-09T07:28:35;7.80;;;6.40;;
6223;SDS011;3145;42.726;23.342;2022-09-09T07:31:02;10.65;;;8.18;;
6223;SDS011;3145;42.726;23.342;2022-09-09T07:33:31;7.95;;;7.15;;
6223;SDS011;3145;42.726;23.342;2022-09-09T07:36:03;7.75;;;6.57;;
6223;SDS011;3145;42.726;23.342;2022-09-09T07:38:32;8.43;;;6.90;;
6223;SDS011;3145;42.726;23.342;2022-09-09T07:41:03;10.95;;;6.88;;
6223;SDS011;3145;42.726;23.342;2022-09-09T07:43:32;9.95;;;6.80;;
6223;SDS011;3145;42.726;23.342;2022-09-09T07:45:59;6.22;;;5.70;;
6223;SDS011;3145;42.726;23.342;2022-09-09T07:48:27;9.30;;;6.03;;
6223;SDS011;3145;42.726;23.342;2022-09-09T07:51:03;8.73;;;5.82;;
6223;SDS011;3145;42.726;23.342;2022-09-09T07:53:32;6.07;;;5.50;;
6223;SDS011;3145;42.726;23.342;2022-09-09T07:56:03;7.82;;;5.55;;
6223;SDS011;3145;42.726;23.342;2022-09-09T07:58:31;7.47;;;6.03;;
6223;SDS011;3145;42.726;23.342;2022-09-09T08:00:58;7.55;;;5.55;;
6223;SDS011;3145;42.726;23.342;2022-09-09T08:03:25;7.13;;;6.43;;
6223;SDS011;3145;42.726;23.342;2022-09-09T08:05:51;12.35;;;5.53;;
6223;SDS011;3145;42.726;23.342;2022-09-09T08:08:20;6.07;;;5.47;;
6223;SDS011;3145;42.726;23.342;2022-09-09T08:10:46;9.38;;;6.05;;
6223;SDS011;3145;42.726;23.342;2022-09-09T08:13:13;6.28;;;5.70;;
6223;SDS011;3145;42.726;23.342;2022-09-09T08:15:40;6.07;;;5.57;;
6223;SDS011;3145;42.726;23.342;2022-09-09T08:18:07;5.70;;;5.30;;
6223;SDS011;3145;42.726;23.342;2022-09-09T08:20:35;6.28;;;5.60;;
6223;SDS011;3145;42.726;23.342;2022-09-09T08:23:02;10.13;;;5.65;;
6223;SDS011;3145;42.726;23.342;2022-09-09T08:25:31;6.90;;;6.20;;
6223;SDS011;3145;42.726;23.342;2022-09-09T08:27:59;6.50;;;5.93;;
6223;SDS011;3145;42.726;23.342;2022-09-09T08:30:26;7.82;;;5.60;;
6223;SDS011;3145;42.726;23.342;2022-09-09T08:32:53;9.88;;;5.90;;
6223;SDS011;3145;42.726;23.342;2022-09-09T08:35:20;6.88;;;5.70;;
6223;SDS011;3145;42.726;23.342;2022-09-09T08:37:47;6.40;;;5.88;;
6223;SDS011;3145;42.726;23.342;2022-09-09T08:40:17;5.70;;;5.32;;
6223;SDS011;3145;42.726;23.342;2022-09-09T08:42:53;6.13;;;5.70;;
6223;SDS011;3145;42.726;23.342;2022-09-09T08:45:29;8.77;;;6.10;;
6223;SDS011;3145;42.726;23.342;2022-09-09T08:48:07;6.07;;;5.60;;
6223;SDS011;3145;42.726;23.342;2022-09-09T08:50:45;6.45;;;5.50;;
6223;SDS011;3145;42.726;23.342;2022-09-09T08:53:16;9.32;;;6.40;;
6223;SDS011;3145;42.726;23.342;2022-09-09T08:55:47;12.27;;;5.72;;
6223;SDS011;3145;42.726;23.342;2022-09-09T08:58:18;7.20;;;5.95;;
6223;SDS011;3145;42.726;23.342;2022-09-09T09:01:02;7.18;;;5.35;;
6223;SDS011;3145;42.726;23.342;2022-09-09T09:03:47;5.72;;;5.03;;
6223;SDS011;3145;42.726;23.342;2022-09-09T09:06:22;7.75;;;6.15;;
6223;SDS011;3145;42.726;23.342;2022-09-09T09:08:59;5.70;;;5.30;;
6223;SDS011;3145;42.726;23.342;2022-09-09T09:11:34;5.55;;;5.15;;
6223;SDS011;3145;42.726;23.342;2022-09-09T09:14:05;8.88;;;5.95;;
6223;SDS011;3145;42.726;23.342;2022-09-09T09:16:39;5.80;;;5.20;;
6223;SDS011;3145;42.726;23.342;2022-09-09T09:19:15;6.13;;;4.90;;
6223;SDS011;3145;42.726;23.342;2022-09-09T09:21:43;9.55;;;5.05;;
6223;SDS011;3145;42.726;23.342;2022-09-09T09:24:15;8.20;;;5.88;;
6223;SDS011;3145;42.726;23.342;2022-09-09T09:26:44;8.18;;;6.07;;
6223;SDS011;3145;42.726;23.342;2022-09-09T09:29:15;6.40;;;6.00;;
6223;SDS011;3145;42.726;23.342;2022-09-09T09:31:44;6.35;;;5.75;;
6223;SDS011;3145;42.726;23.342;2022-09-09T09:34:14;6.40;;;5.90;;
6223;SDS011;3145;42.726;23.342;2022-09-09T09:36:43;9.30;;;5.65;;
6223;SDS011;3145;42.726;23.342;2022-09-09T09:39:21;9.13;;;5.68;;
6223;SDS011;3145;42.726;23.342;2022-09-09T09:41:49;8.65;;;5.85;;
6223;SDS011;3145;42.726;23.342;2022-09-09T09:44:24;6.50;;;5.90;;
6223;SDS011;3145;42.726;23.342;2022-09-09T09:46:53;7.63;;;5.68;;
6223;SDS011;3145;42.726;23.342;2022-09-09T09:49:32;6.53;;;6.00;;
6223;SDS011;3145;42.726;23.342;2022-09-09T09:52:00;6.20;;;5.60;;
6223;SDS011;3145;42.726;23.342;2022-09-09T09:54:28;6.15;;;5.70;;
6223;SDS011;3145;42.726;23.342;2022-09-09T09:56:56;7.63;;;5.93;;
6223;SDS011;3145;42.726;23.342;2022-09-09T09:59:36;6.15;;;5.65;;
6223;SDS011;3145;42.726;23.342;2022-09-09T10:02:18;7.47;;;6.75;;
6223;SDS011;3145;42.726;23.342;2022-09-09T10:04:59;6.85;;;6.35;;
6223;SDS011;3145;42.726;23.342;2022-09-09T10:07:27;9.50;;;6.47;;
6223;SDS011;3145;42.726;23.342;2022-09-09T10:09:55;9.00;;;6.53;;
6223;SDS011;3145;42.726;23.342;2022-09-09T10:12:25;8.15;;;6.15;;
6223;SDS011;3145;42.726;23.342;2022-09-09T10:15:06;8.20;;;6.40;;
6223;SDS011;3145;42.726;23.342;2022-09-09T10:17:49;6.80;;;6.07;;
6223;SDS011;3145;42.726;23.342;2022-09-09T10:20:27;7.45;;;6.53;;
6223;SDS011;3145;42.726;23.342;2022-09-09T10:23:04;8.18;;;6.28;;
6223;SDS011;3145;42.726;23.342;2022-09-09T10:25:44;9.45;;;6.28;;
6223;SDS011;3145;42.726;23.342;2022-09-09T10:28:30;14.13;;;7.10;;
6223;SDS011;3145;42.726;23.342;2022-09-09T10:31:12;8.25;;;6.80;;
6223;SDS011;3145;42.726;23.342;2022-09-09T10:33:51;8.60;;;6.60;;
6223;SDS011;3145;42.726;23.342;2022-09-09T10:36:29;9.05;;;7.50;;
6223;SDS011;3145;42.726;23.342;2022-09-09T10:38:57;7.68;;;6.95;;
6223;SDS011;3145;42.726;23.342;2022-09-09T10:41:34;7.57;;;6.78;;
6223;SDS011;3145;42.726;23.342;2022-09-09T10:44:19;10.80;;;6.60;;
6223;SDS011;3145;42.726;23.342;2022-09-09T10:50:04;6.93;;;6.30;;
6223;SDS011;3145;42.726;23.342;2022-09-09T10:52:46;11.48;;;7.25;;
6223;SDS011;3145;42.726;23.342;2022-09-09T10:55:22;10.98;;;8.20;;
6223;SDS011;3145;42.726;23.342;2022-09-09T10:57:53;11.50;;;8.23;;
6223;SDS011;3145;42.726;23.342;2022-09-09T11:00:23;14.27;;;10.93;;
6223;SDS011;3145;42.726;23.342;2022-09-09T11:02:54;9.32;;;8.20;;
6223;SDS011;3145;42.726;23.342;2022-09-09T11:05:24;9.27;;;7.93;;
6223;SDS011;3145;42.726;23.342;2022-09-09T11:07:57;11.98;;;6.70;;
6223;SDS011;3145;42.726;23.342;2022-09-09T11:10:29;9.88;;;8.27;;
6223;SDS011;3145;42.726;23.342;2022-09-09T11:13:09;8.70;;;7.78;;
6223;SDS011;3145;42.726;23.342;2022-09-09T11:15:43;9.05;;;8.25;;
6223;SDS011;3145;42.726;23.342;2022-09-09T11:18:15;9.00;;;7.53;;
6223;SDS011;3145;42.726;23.342;2022-09-09T11:20:46;14.27;;;7.18;;
6223;SDS011;3145;42.726;23.342;2022-09-09T11:23:16;11.43;;;8.43;;
6223;SDS011;3145;42.726;23.342;2022-09-09T11:25:48;9.63;;;8.57;;
6223;SDS011;3145;42.726;23.342;2022-09-09T11:28:26;8.63;;;7.93;;
6223;SDS011;3145;42.726;23.342;2022-09-09T11:31:04;13.23;;;8.98;;
6223;SDS011;3145;42.726;23.342;2022-09-09T11:36:49;9.82;;;8.18;;
6223;SDS011;3145;42.726;23.342;2022-09-09T11:39:38;9.18;;;8.20;;
6223;SDS011;3145;42.726;23.342;2022-09-09T11:42:18;9.52;;;7.88;;
6223;SDS011;3145;42.726;23.342;2022-09-09T11:44:47;8.27;;;7.50;;
6223;SDS011;3145;42.726;23.342;2022-09-09T11:47:20;9.23;;;7.72;;
6223;SDS011;3145;42.726;23.342;2022-09-09T11:49:55;8.45;;;7.65;;
6223;SDS011;3145;42.726;23.342;2022-09-09T11:52:37;10.70;;;8.13;;
6223;SDS011;3145;42.726;23.342;2022-09-09T11:55:11;9.00;;;7.72;;
6223;SDS011;3145;42.726;23.342;2022-09-09T11:57:56;8.10;;;7.45;;
6223;SDS011;3145;42.726;23.342;2022-09-09T12:00:28;12.60;;;8.30;;
6223;SDS011;3145;42.726;23.342;2022-09-09T12:02:59;8.68;;;7.97;;
6223;SDS011;3145;42.726;23.342;2022-09-09T12:05:36;9.48;;;8.68;;
6223;SDS011;3145;42.726;23.342;2022-09-09T12:08:05;10.60;;;9.50;;
6223;SDS011;3145;42.726;23.342;2022-09-09T12:10:37;10.18;;;9.02;;
6223;SDS011;3145;42.726;23.342;2022-09-09T12:13:15;9.55;;;8.35;;
6223;SDS011;3145;42.726;23.342;2022-09-09T12:15:46;11.60;;;8.82;;
6223;SDS011;3145;42.726;23.342;2022-09-09T12:18:14;9.43;;;8.52;;
6223;SDS011;3145;42.726;23.342;2022-09-09T12:20:52;10.75;;;9.40;;
6223;SDS011;3145;42.726;23.342;2022-09-09T12:23:29;9.85;;;8.50;;
6223;SDS011;3145;42.726;23.342;2022-09-09T12:29:00;11.50;;;9.68;;
6223;SDS011;3145;42.726;23.342;2022-09-09T12:31:36;10.38;;;8.23;;
6223;SDS011;3145;42.726;23.342;2022-09-09T12:34:09;13.20;;;9.98;;
6223;SDS011;3145;42.726;23.342;2022-09-09T12:36:39;10.18;;;8.75;;
6223;SDS011;3145;42.726;23.342;2022-09-09T12:39:12;14.13;;;9.43;;
6223;SDS011;3145;42.726;23.342;2022-09-09T12:41:50;12.30;;;9.43;;
6223;SDS011;3145;42.726;23.342;2022-09-09T12:44:22;10.18;;;9.10;;
6223;SDS011;3145;42.726;23.342;2022-09-09T12:46:50;9.63;;;8.70;;
6223;SDS011;3145;42.726;23.342;2022-09-09T12:52:08;14.82;;;9.50;;
6223;SDS011;3145;42.726;23.342;2022-09-09T12:54:43;10.35;;;9.30;;
6223;SDS011;3145;42.726;23.342;2022-09-09T12:57:12;10.65;;;9.73;;
6223;SDS011;3145;42.726;23.342;2022-09-09T12:59:40;12.93;;;9.40;;
6223;SDS011;3145;42.726;23.342;2022-09-09T13:02:14;10.32;;;9.27;;
6223;SDS011;3145;42.726;23.342;2022-09-09T13:04:45;11.68;;;8.80;;
6223;SDS011;3145;42.726;23.342;2022-09-09T13:07:14;9.50;;;8.52;;
6223;SDS011;3145;42.726;23.342;2022-09-09T13:09:41;11.32;;;9.60;;
6223;SDS011;3145;42.726;23.342;2022-09-09T13:12:10;10.95;;;9.68;;
6223;SDS011;3145;42.726;23.342;2022-09-09T13:14:42;10.35;;;9.05;;
6223;SDS011;3145;42.726;23.342;2022-09-09T13:17:15;10.40;;;9.32;;
6223;SDS011;3145;42.726;23.342;2022-09-09T13:19:46;10.77;;;7.93;;
6223;SDS011;3145;42.726;23.342;2022-09-09T13:22:20;9.63;;;8.82;;
6223;SDS011;3145;42.726;23.342;2022-09-09T13:24:58;10.82;;;8.23;;
6223;SDS011;3145;42.726;23.342;2022-09-09T13:27:28;10.95;;;7.15;;
6223;SDS011;3145;42.726;23.342;2022-09-09T13:29:57;12.32;;;7.38;;
6223;SDS011;3145;42.726;23.342;2022-09-09T13:32:24;9.25;;;8.30;;
6223;SDS011;3145;42.726;23.342;2022-09-09T13:34:53;8.40;;;7.20;;
6223;SDS011;3145;42.726;23.342;2022-09-09T13:37:24;11.55;;;8.13;;
6223;SDS011;3145;42.726;23.342;2022-09-09T13:39:57;15.40;;;8.50;;
6223;SDS011;3145;42.726;23.342;2022-09-09T13:42:24;12.77;;;7.35;;
6223;SDS011;3145;42.726;23.342;2022-09-09T13:44:52;9.05;;;6.47;;
6223;SDS011;3145;42.726;23.342;2022-09-09T13:47:21;8.00;;;6.55;;
6223;SDS011;3145;42.726;23.342;2022-09-09T13:49:55;11.18;;;7.22;;
6223;SDS011;3145;42.726;23.342;2022-09-09T13:52:21;11.77;;;5.53;;
6223;SDS011;3145;42.726;23.342;2022-09-09T13:54:51;6.20;;;5.60;;
6223;SDS011;3145;42.726;23.342;2022-09-09T13:57:20;9.63;;;5.60;;
6223;SDS011;3145;42.726;23.342;2022-09-09T13:59:48;12.20;;;7.18;;
6223;SDS011;3145;42.726;23.342;2022-09-09T14:02:15;7.85;;;7.07;;
6223;SDS011;3145;42.726;23.342;2022-09-09T14:04:42;13.95;;;8.32;;
6223;SDS011;3145;42.726;23.342;2022-09-09T14:07:10;12.30;;;7.88;;
6223;SDS011;3145;42.726;23.342;2022-09-09T14:09:40;8.30;;;7.53;;
6223;SDS011;3145;42.726;23.342;2022-09-09T14:12:08;7.63;;;6.43;;
6223;SDS011;3145;42.726;23.342;2022-09-09T14:14:35;7.63;;;6.75;;
6223;SDS011;3145;42.726;23.342;2022-09-09T14:17:02;8.02;;;7.30;;
6223;SDS011;3145;42.726;23.342;2022-09-09T14:19:29;8.25;;;7.50;;
6223;SDS011;3145;42.726;23.342;2022-09-09T14:21:57;10.45;;;7.38;;
6223;SDS011;3145;42.726;23.342;2022-09-09T14:24:24;9.32;;;8.27;;
6223;SDS011;3145;42.726;23.342;2022-09-09T14:26:52;9.55;;;7.78;;
6223;SDS011;3145;42.726;23.342;2022-09-09T14:29:19;11.15;;;6.20;;
6223;SDS011;3145;42.726;23.342;2022-09-09T14:31:46;8.05;;;6.40;;
6223;SDS011;3145;42.726;23.342;2022-09-09T14:34:13;9.07;;;6.28;;
6223;SDS011;3145;42.726;23.342;2022-09-09T14:36:39;8.68;;;7.57;;
6223;SDS011;3145;42.726;23.342;2022-09-09T14:39:07;9.95;;;8.10;;
6223;SDS011;3145;42.726;23.342;2022-09-09T14:41:33;13.07;;;7.63;;
6223;SDS011;3145;42.726;23.342;2022-09-09T14:44:02;10.48;;;7.00;;
6223;SDS011;3145;42.726;23.342;2022-09-09T14:46:28;7.55;;;6.13;;
6223;SDS011;3145;42.726;23.342;2022-09-09T14:48:56;10.98;;;6.18;;
6223;SDS011;3145;42.726;23.342;2022-09-09T14:51:23;7.82;;;7.00;;
6223;SDS011;3145;42.726;23.342;2022-09-09T14:53:52;11.57;;;7.20;;
6223;SDS011;3145;42.726;23.342;2022-09-09T14:56:21;10.15;;;7.60;;
6223;SDS011;3145;42.726;23.342;2022-09-09T14:58:50;11.27;;;7.22;;
6223;SDS011;3145;42.726;23.342;2022-09-09T15:01:20;13.18;;;6.82;;
6223;SDS011;3145;42.726;23.342;2022-09-09T15:03:50;12.77;;;7.28;;
6223;SDS011;3145;42.726;23.342;2022-09-09T15:06:18;10.07;;;7.03;;
6223;SDS011;3145;42.726;23.342;2022-09-09T15:08:46;10.02;;;6.90;;
6223;SDS011;3145;42.726;23.342;2022-09-09T15:11:14;6.85;;;6.15;;
6223;SDS011;3145;42.726;23.342;2022-09-09T15:13:41;9.50;;;7.45;;
6223;SDS011;3145;42.726;23.342;2022-09-09T15:16:10;8.60;;;7.07;;
6223;SDS011;3145;42.726;23.342;2022-09-09T15:18:40;14.93;;;7.43;;
6223;SDS011;3145;42.726;23.342;2022-09-09T15:21:08;10.75;;;7.38;;
6223;SDS011;3145;42.726;23.342;2022-09-09T15:23:35;20.48;;;7.50;;